createdAt,value
2022-11-19T00:01:26.621Z,-2.08
2022-11-19T00:03:54.053Z,-2.11
2022-11-19T00:06:24.816Z,-2.05
2022-11-19T00:08:52.051Z,-2.02
2022-11-19T00:11:45.599Z,-2.04
2022-11-19T00:14:14.468Z,-2.08
2022-11-19T00:16:42.447Z,-2.38
2022-11-19T00:19:10.986Z,-2.14
2022-11-19T00:21:37.962Z,-2.13
2022-11-19T00:24:05.214Z,-2.13
2022-11-19T00:26:32.139Z,-2.21
2022-11-19T00:28:59.141Z,-2.13
2022-11-19T00:31:26.024Z,-2.10
2022-11-19T00:33:54.835Z,-2.03
2022-11-19T00:36:22.964Z,-2.02
2022-11-19T00:38:50.067Z,-2.02
2022-11-19T00:41:17.080Z,-2.05
2022-11-19T00:43:50.662Z,-2.00
2022-11-19T00:46:22.676Z,-2.01
2022-11-19T00:48:51.463Z,-2.01
2022-11-19T00:51:19.993Z,-2.04
2022-11-19T00:53:47.380Z,-2.06
2022-11-19T00:56:18.175Z,-2.06
2022-11-19T00:58:45.949Z,-2.09
2022-11-19T01:01:15.347Z,-2.09
2022-11-19T01:03:43.067Z,-2.34
2022-11-19T01:06:18.888Z,-2.43
2022-11-19T01:08:47.467Z,-2.43
2022-11-19T01:11:26.257Z,-2.53
2022-11-19T01:13:53.658Z,-2.56
2022-11-19T01:16:23.668Z,-2.44
2022-11-19T01:18:51.444Z,-2.41
2022-11-19T01:21:20.802Z,-2.44
2022-11-19T01:23:48.821Z,-2.47
2022-11-19T01:26:16.294Z,-2.49
2022-11-19T01:28:43.971Z,-2.53
2022-11-19T01:31:17.372Z,-2.46
2022-11-19T01:33:45.468Z,-2.42
2022-11-19T01:36:14.831Z,-2.46
2022-11-19T01:38:42.108Z,-2.83
2022-11-19T01:41:09.707Z,-2.62
2022-11-19T01:43:48.969Z,-2.67
2022-11-19T01:46:21.866Z,-2.73
2022-11-19T01:48:57.819Z,-2.78
2022-11-19T01:51:52.032Z,-2.84
2022-11-19T01:54:34.255Z,-2.90
2022-11-19T01:57:04.765Z,-2.90
2022-11-19T01:59:32.466Z,-2.83
2022-11-19T02:02:00.248Z,-2.83
2022-11-19T02:04:28.911Z,-2.87
2022-11-19T02:07:19.292Z,-2.86
2022-11-19T02:10:01.971Z,-2.77
2022-11-19T02:12:53.318Z,-2.70
2022-11-19T02:15:55.444Z,-2.64
2022-11-19T02:19:06.871Z,-2.93
2022-11-19T02:22:25.415Z,-2.79
2022-11-19T02:25:19.515Z,-2.80
2022-11-19T02:28:25.115Z,-2.73
2022-11-19T02:30:59.362Z,-2.75
2022-11-19T02:33:29.138Z,-2.67
2022-11-19T02:36:03.105Z,-2.99
2022-11-19T02:38:38.242Z,-2.80
2022-11-19T02:41:30.961Z,-2.80
2022-11-19T02:44:39.632Z,-2.74
2022-11-19T02:47:12.356Z,-2.78
2022-11-19T02:49:44.818Z,-2.82
2022-11-19T02:52:16.559Z,-2.83
2022-11-19T02:54:43.946Z,-2.82
2022-11-19T02:57:13.167Z,-2.85
2022-11-19T03:00:08.551Z,-2.77
2022-11-19T03:03:10.007Z,-2.77
2022-11-19T03:05:42.660Z,-2.75
2022-11-19T03:08:09.654Z,-2.86
2022-11-19T03:10:54.857Z,-2.70
2022-11-19T03:13:45.128Z,-2.74
2022-11-19T03:16:42.702Z,-2.84
2022-11-19T03:19:30.878Z,-2.69
2022-11-19T03:22:09.834Z,-2.64
2022-11-19T03:24:42.063Z,-2.63
2022-11-19T03:27:15.396Z,-2.55
2022-11-19T03:29:47.180Z,-2.63
2022-11-19T03:32:19.842Z,-2.70
2022-11-19T03:34:50.741Z,-2.65
2022-11-19T03:37:23.003Z,-2.58
2022-11-19T03:39:52.620Z,-2.79
2022-11-19T03:42:21.392Z,-2.81
2022-11-19T03:44:57.376Z,-2.86
2022-11-19T03:47:34.356Z,-2.70
2022-11-19T03:50:24.650Z,-2.64
2022-11-19T03:52:51.896Z,-2.60
2022-11-19T03:55:18.925Z,-2.55
2022-11-19T03:57:46.186Z,-2.47
2022-11-19T04:00:13.485Z,-2.56
2022-11-19T04:02:41.010Z,-2.56
2022-11-19T04:05:09.432Z,-2.61
2022-11-19T04:07:36.505Z,-2.52
2022-11-19T04:10:03.743Z,-2.49
2022-11-19T04:12:30.681Z,-2.47
2022-11-19T04:14:57.567Z,-2.52
2022-11-19T04:17:24.512Z,-2.53
2022-11-19T04:19:51.560Z,-2.53
2022-11-19T04:22:18.505Z,-2.50
2022-11-19T04:24:45.420Z,-2.58
2022-11-19T04:27:12.429Z,-2.64
2022-11-19T04:29:39.407Z,-2.67
2022-11-19T04:32:06.373Z,-2.66
2022-11-19T04:34:33.332Z,-2.73
2022-11-19T04:37:00.286Z,-2.76
2022-11-19T04:39:27.570Z,-2.79
2022-11-19T04:41:54.701Z,-2.84
2022-11-19T04:44:21.659Z,-2.96
2022-11-19T04:46:48.591Z,-2.85
2022-11-19T04:49:15.579Z,-2.86
2022-11-19T04:51:42.572Z,-2.82
2022-11-19T04:54:09.740Z,-2.78
2022-11-19T04:56:37.800Z,-2.71
2022-11-19T04:59:05.648Z,-2.68
2022-11-19T05:01:32.681Z,-2.77
2022-11-19T05:03:59.790Z,-2.80
2022-11-19T05:06:26.756Z,-2.73
2022-11-19T05:08:53.738Z,-2.66
2022-11-19T05:11:20.687Z,-2.59
2022-11-19T05:13:47.629Z,-2.69
2022-11-19T05:16:14.697Z,-2.71
2022-11-19T05:18:41.667Z,-2.68
2022-11-19T05:21:08.735Z,-2.69
2022-11-19T05:23:35.656Z,-2.70
2022-11-19T05:26:02.565Z,-2.71
2022-11-19T05:28:38.668Z,-2.70
2022-11-19T05:31:06.930Z,-2.61
2022-11-19T05:33:34.656Z,-2.58
2022-11-19T05:36:02.215Z,-2.63
2022-11-19T05:38:29.212Z,-2.74
2022-11-19T05:40:56.201Z,-2.77
2022-11-19T05:43:24.019Z,-2.78
2022-11-19T05:45:50.965Z,-2.73
2022-11-19T05:48:17.888Z,-2.80
2022-11-19T05:50:44.853Z,-2.70
2022-11-19T05:53:11.824Z,-2.81
2022-11-19T05:55:38.771Z,-2.71
2022-11-19T05:58:05.651Z,-2.74
2022-11-19T06:00:32.517Z,-2.69
2022-11-19T06:02:59.559Z,-2.76
2022-11-19T06:05:26.584Z,-2.76
2022-11-19T06:07:53.493Z,-2.73
2022-11-19T06:10:20.438Z,-2.74
2022-11-19T06:12:47.362Z,-2.67
2022-11-19T06:15:15.240Z,-2.65
2022-11-19T06:17:42.547Z,-2.58
2022-11-19T06:20:11.397Z,-2.60
2022-11-19T06:22:39.023Z,-2.47
2022-11-19T06:25:07.830Z,-2.46
2022-11-19T06:27:35.394Z,-2.77
2022-11-19T06:30:02.452Z,-2.86
2022-11-19T06:32:29.426Z,-2.89
2022-11-19T06:34:56.360Z,-2.78
2022-11-19T06:37:23.586Z,-2.71
2022-11-19T06:39:50.558Z,-2.74
2022-11-19T06:42:36.302Z,-2.80
2022-11-19T06:45:14.370Z,-2.77
2022-11-19T06:47:42.392Z,-2.70
2022-11-19T06:50:10.926Z,-2.72
2022-11-19T06:52:38.196Z,-2.91
2022-11-19T06:55:05.520Z,-2.88
2022-11-19T06:57:32.560Z,-2.89
2022-11-19T06:59:59.504Z,-2.81
2022-11-19T07:02:26.454Z,-2.84
2022-11-19T07:04:53.475Z,-2.84
2022-11-19T07:07:20.360Z,-2.68
2022-11-19T07:09:47.313Z,-2.72
2022-11-19T07:12:14.177Z,-2.73
2022-11-19T07:14:41.179Z,-2.58
2022-11-19T07:17:08.115Z,-2.74
2022-11-19T07:19:35.111Z,-2.78
2022-11-19T07:22:02.022Z,-2.78
2022-11-19T07:24:28.986Z,-2.74
2022-11-19T07:26:56.439Z,-2.58
2022-11-19T07:29:23.642Z,-2.63
2022-11-19T07:31:51.011Z,-2.42
2022-11-19T07:34:18.625Z,-2.27
2022-11-19T07:36:46.696Z,-2.33
2022-11-19T07:39:13.813Z,-2.37
2022-11-19T07:41:59.429Z,-2.26
2022-11-19T07:44:26.748Z,-2.26
2022-11-19T07:46:53.787Z,-2.21
2022-11-19T07:49:21.185Z,-2.18
2022-11-19T07:51:48.418Z,-2.13
2022-11-19T07:54:15.527Z,-2.06
2022-11-19T07:56:42.986Z,-2.01
2022-11-19T07:59:10.602Z,-1.97
2022-11-19T08:01:38.263Z,-1.89
2022-11-19T08:04:05.523Z,-1.87
2022-11-19T08:06:34.748Z,-1.84
2022-11-19T08:09:04.164Z,-1.85
2022-11-19T08:11:31.564Z,-1.95
2022-11-19T08:14:02.248Z,-2.05
2022-11-19T08:16:48.782Z,-1.96
2022-11-19T08:19:16.883Z,-1.98
2022-11-19T08:21:46.182Z,-1.94
2022-11-19T08:24:14.948Z,-1.88
2022-11-19T08:26:43.442Z,-1.91
2022-11-19T08:29:15.914Z,-1.75
2022-11-19T08:31:45.182Z,-1.60
2022-11-19T08:34:12.537Z,-1.56
2022-11-19T08:36:39.837Z,-1.38
2022-11-19T08:39:06.995Z,-1.22
2022-11-19T08:41:52.729Z,-1.19
2022-11-19T08:44:20.085Z,-1.06
2022-11-19T08:46:47.346Z,-0.92
2022-11-19T08:49:14.636Z,-0.79
2022-11-19T08:51:41.641Z,-0.67
2022-11-19T08:54:09.210Z,-0.72
2022-11-19T08:56:36.931Z,-0.66
2022-11-19T08:59:04.361Z,-0.71
2022-11-19T09:01:31.669Z,-0.79
2022-11-19T09:03:59.026Z,-0.85
2022-11-19T09:06:26.594Z,-0.90
2022-11-19T09:08:53.620Z,-0.82
2022-11-19T09:11:22.211Z,-1.09
2022-11-19T09:13:49.673Z,-1.05
2022-11-19T09:16:17.263Z,-1.10
2022-11-19T09:18:44.947Z,-1.17
2022-11-19T09:21:12.934Z,-1.11
2022-11-19T09:23:41.790Z,-1.26
2022-11-19T09:26:15.200Z,-1.25
2022-11-19T09:28:43.436Z,-1.27
2022-11-19T09:31:13.536Z,-1.22
2022-11-19T09:33:42.546Z,-1.10
2022-11-19T09:36:10.913Z,-0.98
2022-11-19T09:38:39.576Z,-0.85
2022-11-19T09:41:44.076Z,-0.78
2022-11-19T09:44:23.080Z,-0.62
2022-11-19T09:46:59.138Z,-0.50
2022-11-19T09:49:36.940Z,-0.45
2022-11-19T09:52:14.140Z,-0.83
2022-11-19T09:54:48.826Z,-0.59
2022-11-19T09:57:28.115Z,-0.34
2022-11-19T09:59:59.459Z,-0.16
2022-11-19T10:02:26.834Z,0.02
2022-11-19T10:04:54.496Z,0.09
2022-11-19T10:07:41.085Z,0.28
2022-11-19T10:10:36.050Z,0.44
2022-11-19T10:13:33.763Z,0.55
2022-11-19T10:16:17.481Z,0.59
2022-11-19T10:19:22.686Z,0.54
2022-11-19T10:22:07.819Z,0.13
2022-11-19T10:24:42.559Z,-0.25
2022-11-19T10:27:26.181Z,-0.07
2022-11-19T10:29:58.594Z,0.04
2022-11-19T10:33:00.939Z,0.03
2022-11-19T10:35:36.462Z,-0.27
2022-11-19T10:38:07.555Z,-0.25
2022-11-19T10:41:00.336Z,-0.25
2022-11-19T10:43:48.937Z,-0.26
2022-11-19T10:46:20.346Z,-0.30
2022-11-19T10:48:52.006Z,-0.28
2022-11-19T10:51:26.175Z,-0.78
2022-11-19T10:53:56.309Z,-0.86
2022-11-19T10:56:44.467Z,-1.33
2022-11-19T10:59:24.765Z,-1.29
2022-11-19T11:01:58.430Z,-1.41
2022-11-19T11:04:30.449Z,-1.33
2022-11-19T11:07:04.502Z,-1.62
2022-11-19T11:09:35.822Z,-1.48
2022-11-19T11:12:35.552Z,-1.58
2022-11-19T11:15:30.766Z,-1.28
2022-11-19T11:18:09.258Z,-1.09
2022-11-19T11:20:41.755Z,-1.08
2022-11-19T11:23:26.376Z,-1.21
2022-11-19T11:26:14.082Z,-1.17
2022-11-19T11:29:01.931Z,-0.98
2022-11-19T11:31:45.599Z,-0.82
2022-11-19T11:34:37.142Z,-0.90
2022-11-19T11:37:10.162Z,-1.00
2022-11-19T11:39:45.101Z,-0.84
2022-11-19T11:42:21.436Z,-0.84
2022-11-19T11:44:56.357Z,-0.81
2022-11-19T11:47:32.401Z,-0.60
2022-11-19T11:50:19.010Z,-0.60
2022-11-19T11:52:53.927Z,-1.08
2022-11-19T11:55:25.865Z,-1.10
2022-11-19T11:58:07.011Z,-1.55
2022-11-19T12:00:43.124Z,-1.33
2022-11-19T12:03:20.244Z,-1.43
2022-11-19T12:05:58.538Z,-1.28
2022-11-19T12:08:52.901Z,-1.23
2022-11-19T12:11:29.060Z,-1.29
2022-11-19T12:14:21.317Z,-1.41
2022-11-19T12:17:17.936Z,-1.38
2022-11-19T12:20:24.100Z,-1.36
2022-11-19T12:22:56.934Z,-1.08
2022-11-19T12:25:48.149Z,-1.06
2022-11-19T12:28:52.220Z,-0.77
2022-11-19T12:31:29.680Z,-0.80
2022-11-19T12:34:15.122Z,-0.70
2022-11-19T12:37:01.997Z,-0.63
2022-11-19T12:40:15.853Z,-0.54
2022-11-19T12:43:00.426Z,-0.51
2022-11-19T12:45:57.880Z,-0.54
2022-11-19T12:48:52.678Z,-0.50
2022-11-19T12:51:42.666Z,-0.54
2022-11-19T12:54:17.576Z,-0.54
2022-11-19T12:56:58.075Z,-0.52
2022-11-19T12:59:33.836Z,-0.87
2022-11-19T13:02:11.126Z,-1.10
2022-11-19T13:04:46.117Z,-0.86
2022-11-19T13:07:19.910Z,-0.79
2022-11-19T13:09:54.999Z,-0.90
2022-11-19T13:12:26.807Z,-0.80
2022-11-19T13:14:59.874Z,-0.93
2022-11-19T13:17:30.318Z,-0.81
2022-11-19T13:20:12.035Z,-0.74
2022-11-19T13:22:44.424Z,-0.69
2022-11-19T13:25:24.590Z,-0.77
2022-11-19T13:27:54.952Z,-0.74
2022-11-19T13:30:27.500Z,-0.69
2022-11-19T13:33:00.357Z,-0.64
2022-11-19T13:35:38.973Z,-0.69
2022-11-19T13:38:20.047Z,-0.85
2022-11-19T13:40:53.241Z,-0.92
2022-11-19T13:43:41.182Z,-0.90
2022-11-19T13:46:11.090Z,-0.93
2022-11-19T13:48:44.642Z,-0.97
2022-11-19T13:51:55.437Z,-1.06
2022-11-19T13:54:26.964Z,-1.09
2022-11-19T13:56:57.592Z,-1.03
2022-11-19T13:59:39.782Z,-1.22
2022-11-19T14:02:43.947Z,-1.13
2022-11-19T14:05:29.623Z,-1.08
2022-11-19T14:08:18.123Z,-1.07
2022-11-19T14:11:11.076Z,-1.06
2022-11-19T14:14:35.191Z,-1.08
2022-11-19T14:17:56.767Z,-1.11
2022-11-19T14:21:01.841Z,-1.14
2022-11-19T14:24:03.616Z,-1.20
2022-11-19T14:27:00.736Z,-1.40
2022-11-19T14:29:27.610Z,-1.49
2022-11-19T14:32:00.529Z,-1.61
2022-11-19T14:34:35.192Z,-1.55
2022-11-19T14:37:28.015Z,-1.52
2022-11-19T14:40:06.630Z,-1.46
2022-11-19T14:42:33.768Z,-1.42
2022-11-19T14:45:03.406Z,-1.48
2022-11-19T14:47:35.596Z,-1.44
2022-11-19T14:50:09.934Z,-1.50
2022-11-19T14:52:55.137Z,-1.50
2022-11-19T14:55:30.373Z,-1.53
2022-11-19T14:58:02.352Z,-1.55
2022-11-19T15:00:32.127Z,-1.56
2022-11-19T15:03:01.655Z,-1.59
2022-11-19T15:05:36.799Z,-1.62
2022-11-19T15:08:19.083Z,-1.66
2022-11-19T15:11:08.577Z,-1.71
2022-11-19T15:13:40.949Z,-1.78
2022-11-19T15:16:17.646Z,-1.78
2022-11-19T15:18:45.184Z,-1.76
2022-11-19T15:21:15.424Z,-1.86
2022-11-19T15:24:11.151Z,-1.85
2022-11-19T15:27:05.410Z,-1.92
2022-11-19T15:30:01.020Z,-2.09
2022-11-19T15:32:52.738Z,-2.19
2022-11-19T15:35:54.603Z,-2.20
2022-11-19T15:38:25.121Z,-2.17
2022-11-19T15:40:56.492Z,-2.12
2022-11-19T15:43:27.767Z,-2.18
2022-11-19T15:46:18.785Z,-2.18
2022-11-19T15:49:22.995Z,-2.17
2022-11-19T15:52:10.805Z,-2.15
2022-11-19T15:54:41.548Z,-2.14
2022-11-19T15:57:17.454Z,-2.10
2022-11-19T15:59:49.833Z,-2.21
2022-11-19T16:02:41.441Z,-2.20
2022-11-19T16:05:23.458Z,-2.19
2022-11-19T16:07:52.563Z,-2.25
2022-11-19T16:10:28.751Z,-2.33
2022-11-19T16:13:19.496Z,-2.36
2022-11-19T16:16:10.763Z,-2.41
2022-11-19T16:18:52.378Z,-2.43
2022-11-19T16:21:27.797Z,-2.50
2022-11-19T16:24:13.870Z,-2.48
2022-11-19T16:26:42.837Z,-2.50
2022-11-19T16:29:19.779Z,-2.58
2022-11-19T16:31:50.357Z,-2.76
2022-11-19T16:34:25.942Z,-2.73
2022-11-19T16:36:53.554Z,-2.83
2022-11-19T16:39:25.504Z,-2.85
2022-11-19T16:42:15.930Z,-2.81
2022-11-19T16:44:53.608Z,-2.78
2022-11-19T16:47:33.688Z,-2.76
2022-11-19T16:50:24.919Z,-2.80
2022-11-19T16:52:51.849Z,-2.79
2022-11-19T16:55:18.735Z,-2.95
2022-11-19T16:58:16.560Z,-2.90
2022-11-19T17:00:48.241Z,-2.87
2022-11-19T17:03:29.852Z,-2.89
2022-11-19T17:05:58.742Z,-3.02
2022-11-19T17:08:31.732Z,-3.03
2022-11-19T17:11:42.563Z,-3.12
2022-11-19T17:14:16.741Z,-3.23
2022-11-19T17:16:50.148Z,-3.31
2022-11-19T17:19:29.147Z,-3.34
2022-11-19T17:22:01.994Z,-3.55
2022-11-19T17:24:38.305Z,-3.48
2022-11-19T17:27:05.482Z,-3.65
2022-11-19T17:29:32.818Z,-3.69
2022-11-19T17:31:59.938Z,-3.65
2022-11-19T17:34:31.451Z,-3.65
2022-11-19T17:36:59.056Z,-3.64
2022-11-19T17:39:26.232Z,-3.65
2022-11-19T17:42:13.911Z,-3.67
2022-11-19T17:44:41.725Z,-3.81
2022-11-19T17:47:23.220Z,-4.05
2022-11-19T17:49:51.317Z,-3.87
2022-11-19T17:52:27.984Z,-3.91
2022-11-19T17:55:10.956Z,-3.92
2022-11-19T17:57:42.402Z,-4.03
2022-11-19T18:00:10.601Z,-4.10
2022-11-19T18:02:37.544Z,-4.12
2022-11-19T18:05:15.401Z,-4.07
2022-11-19T18:07:42.487Z,-4.10
2022-11-19T18:10:10.274Z,-4.13
2022-11-19T18:12:37.227Z,-4.16
2022-11-19T18:15:05.008Z,-4.18
2022-11-19T18:17:31.954Z,-4.23
2022-11-19T18:19:58.827Z,-4.28
2022-11-19T18:22:25.805Z,-4.40
2022-11-19T18:24:52.895Z,-4.40
2022-11-19T18:27:19.898Z,-4.41
2022-11-19T18:29:47.103Z,-4.63
2022-11-19T18:32:17.136Z,-4.59
2022-11-19T18:34:45.663Z,-4.59
2022-11-19T18:37:13.285Z,-4.81
2022-11-19T18:39:40.461Z,-4.61
2022-11-19T18:42:12.108Z,-4.67
2022-11-19T18:44:39.550Z,-4.85
2022-11-19T18:47:10.170Z,-4.95
2022-11-19T18:49:37.901Z,-5.01
2022-11-19T18:52:07.426Z,-5.08
2022-11-19T18:54:34.402Z,-5.22
2022-11-19T18:57:01.607Z,-5.23
2022-11-19T18:59:30.288Z,-5.19
2022-11-19T19:01:57.535Z,-5.33
2022-11-19T19:04:24.580Z,-5.26
2022-11-19T19:06:51.629Z,-5.32
2022-11-19T19:09:20.633Z,-5.39
2022-11-19T19:12:12.649Z,-5.37
2022-11-19T19:14:40.943Z,-5.40
2022-11-19T19:17:08.453Z,-5.40
2022-11-19T19:19:35.837Z,-5.43
2022-11-19T19:22:02.768Z,-5.47
2022-11-19T19:24:30.753Z,-5.50
2022-11-19T19:26:57.685Z,-5.51
2022-11-19T19:29:24.959Z,-5.51
2022-11-19T19:31:52.454Z,-5.46
2022-11-19T19:34:20.048Z,-5.43
2022-11-19T19:36:52.746Z,-5.47
2022-11-19T19:39:20.453Z,-5.49
2022-11-19T19:41:49.438Z,-5.47
2022-11-19T19:44:16.733Z,-5.55
2022-11-19T19:46:43.874Z,-5.54
2022-11-19T19:49:10.829Z,-5.58
2022-11-19T19:51:37.773Z,-5.59
2022-11-19T19:54:04.790Z,-5.56
2022-11-19T19:56:33.646Z,-5.54
2022-11-19T19:59:02.187Z,-5.54
2022-11-19T20:01:31.772Z,-5.54
2022-11-19T20:04:07.007Z,-5.52
2022-11-19T20:06:35.657Z,-5.54
2022-11-19T20:09:08.236Z,-5.64
2022-11-19T20:11:36.367Z,-5.65
2022-11-19T20:14:03.287Z,-5.71
2022-11-19T20:16:32.099Z,-5.73
2022-11-19T20:19:00.531Z,-5.75
2022-11-19T20:21:31.843Z,-5.74
2022-11-19T20:23:58.822Z,-5.73
2022-11-19T20:26:28.791Z,-5.68
2022-11-19T20:28:58.340Z,-5.72
2022-11-19T20:31:26.447Z,-5.81
2022-11-19T20:33:59.111Z,-5.86
2022-11-19T20:36:28.862Z,-5.97
2022-11-19T20:38:57.709Z,-6.14
2022-11-19T20:41:43.514Z,-6.22
2022-11-19T20:44:23.406Z,-6.26
2022-11-19T20:46:57.324Z,-6.43
2022-11-19T20:49:28.865Z,-6.51
2022-11-19T20:51:57.053Z,-6.64
2022-11-19T20:54:25.237Z,-6.54
2022-11-19T20:56:53.324Z,-6.68
2022-11-19T20:59:21.181Z,-6.67
2022-11-19T21:01:50.110Z,-6.81
2022-11-19T21:04:17.936Z,-6.80
2022-11-19T21:06:45.096Z,-6.86
2022-11-19T21:09:12.038Z,-6.94
2022-11-19T21:11:39.132Z,-7.02
2022-11-19T21:14:06.825Z,-7.05
2022-11-19T21:16:33.767Z,-7.12
2022-11-19T21:19:00.855Z,-7.05
2022-11-19T21:21:28.061Z,-7.01
2022-11-19T21:23:55.193Z,-7.02
2022-11-19T21:26:24.486Z,-6.97
2022-11-19T21:28:54.048Z,-6.99
2022-11-19T21:31:23.662Z,-6.99
2022-11-19T21:33:50.642Z,-6.96
2022-11-19T21:36:17.589Z,-6.97
2022-11-19T21:38:44.532Z,-6.92
2022-11-19T21:41:11.421Z,-6.92
2022-11-19T21:43:38.359Z,-6.94
2022-11-19T21:46:08.482Z,-6.99
2022-11-19T21:48:38.473Z,-7.00
2022-11-19T21:51:07.762Z,-7.16
2022-11-19T21:53:35.878Z,-7.24
2022-11-19T21:56:02.804Z,-7.18
2022-11-19T21:58:29.821Z,-7.15
2022-11-19T22:01:04.642Z,-7.17
2022-11-19T22:03:33.512Z,-7.27
2022-11-19T22:06:09.201Z,-7.13
2022-11-19T22:08:41.565Z,-7.20
2022-11-19T22:11:28.663Z,-7.22
2022-11-19T22:13:57.825Z,-7.23
2022-11-19T22:16:24.826Z,-7.31
2022-11-19T22:18:51.775Z,-7.25
2022-11-19T22:21:19.245Z,-7.17
2022-11-19T22:23:46.607Z,-7.19
2022-11-19T22:26:15.767Z,-7.23
2022-11-19T22:28:42.964Z,-7.22
2022-11-19T22:31:11.104Z,-7.14
2022-11-19T22:33:40.319Z,-7.05
2022-11-19T22:36:10.573Z,-7.05
2022-11-19T22:38:39.383Z,-7.05
2022-11-19T22:41:15.558Z,-7.04
2022-11-19T22:43:43.074Z,-7.08
2022-11-19T22:46:15.005Z,-7.16
2022-11-19T22:48:42.190Z,-7.20
2022-11-19T22:51:18.020Z,-7.21
2022-11-19T22:53:45.601Z,-7.17
2022-11-19T22:56:14.684Z,-7.12
2022-11-19T22:58:42.057Z,-7.10
2022-11-19T23:01:16.762Z,-7.09
2022-11-19T23:03:44.206Z,-7.13
2022-11-19T23:06:11.139Z,-7.20
2022-11-19T23:08:38.408Z,-7.30
2022-11-19T23:11:07.308Z,-7.59
2022-11-19T23:13:39.263Z,-7.36
2022-11-19T23:16:13.461Z,-7.47
2022-11-19T23:18:45.939Z,-7.49
2022-11-19T23:21:24.788Z,-7.60
2022-11-19T23:23:53.228Z,-7.60
2022-11-19T23:26:23.358Z,-7.70
2022-11-19T23:28:51.104Z,-7.60
2022-11-19T23:31:23.709Z,-7.55
2022-11-19T23:33:58.542Z,-7.57
2022-11-19T23:36:28.603Z,-7.51
2022-11-19T23:38:55.604Z,-7.51
2022-11-19T23:41:23.133Z,-7.67
2022-11-19T23:43:52.485Z,-7.71
2022-11-19T23:46:25.186Z,-7.73
2022-11-19T23:48:53.307Z,-7.78
2022-11-19T23:51:26.097Z,-7.69
2022-11-19T23:53:53.276Z,-7.75
2022-11-19T23:56:21.727Z,-7.83
2022-11-19T23:58:48.979Z,-7.95
